createdAt,value
2018-11-21T00:00:34.339Z,52.10
2018-11-21T00:03:02.794Z,52.10
2018-11-21T00:05:31.167Z,52.20
2018-11-21T00:07:59.609Z,52.10
2018-11-21T00:10:27.991Z,52.20
2018-11-21T00:12:57.203Z,52.30
2018-11-21T00:15:25.591Z,52.30
2018-11-21T00:17:54.493Z,52.20
2018-11-21T00:20:22.862Z,52.20
2018-11-21T00:22:51.361Z,52.20
2018-11-21T00:25:19.716Z,52.20
2018-11-21T00:27:48.177Z,52.40
2018-11-21T00:30:17.049Z,52.40
2018-11-21T00:32:45.423Z,52.40
2018-11-21T00:35:14.099Z,52.40
2018-11-21T00:37:42.512Z,52.50
2018-11-21T00:40:12.428Z,52.50
2018-11-21T00:42:46.366Z,52.60
2018-11-21T00:45:09.921Z,52.60
2018-11-21T00:47:38.719Z,52.40
2018-11-21T00:50:07.534Z,52.40
2018-11-21T00:52:36.167Z,52.90
2018-11-21T00:55:04.764Z,52.60
2018-11-21T00:57:33.135Z,52.70
2018-11-21T01:00:01.718Z,52.60
2018-11-21T01:02:30.134Z,52.60
2018-11-21T01:04:58.964Z,53.20
2018-11-21T01:07:27.418Z,52.60
2018-11-21T01:09:55.951Z,52.70
2018-11-21T01:12:24.332Z,52.60
2018-11-21T01:14:53.114Z,52.80
2018-11-21T01:17:21.471Z,52.60
2018-11-21T01:19:49.832Z,52.80
2018-11-21T01:22:18.222Z,52.70
2018-11-21T01:24:46.573Z,52.80
2018-11-21T01:27:14.924Z,52.80
2018-11-21T01:29:43.674Z,52.80
2018-11-21T01:32:12.047Z,52.70
2018-11-21T01:34:40.496Z,52.80
2018-11-21T01:37:09.227Z,52.70
2018-11-21T01:39:37.594Z,52.80
2018-11-21T01:42:06.024Z,52.90
2018-11-21T01:44:34.411Z,52.80
2018-11-21T01:47:02.766Z,53.00
2018-11-21T01:49:31.129Z,52.90
2018-11-21T01:51:59.517Z,52.90
2018-11-21T01:54:28.287Z,52.90
2018-11-21T01:56:56.650Z,53.00
2018-11-21T01:59:25.055Z,53.00
2018-11-21T02:01:53.414Z,53.00
2018-11-21T02:04:21.777Z,53.00
2018-11-21T02:06:50.163Z,52.90
2018-11-21T02:09:18.548Z,53.00
2018-11-21T02:11:47.200Z,53.00
2018-11-21T02:14:15.600Z,53.10
2018-11-21T02:16:43.987Z,53.10
2018-11-21T02:19:12.709Z,53.00
2018-11-21T02:21:41.451Z,53.00
2018-11-21T02:24:10.183Z,53.20
2018-11-21T02:26:38.562Z,53.20
2018-11-21T02:29:07.099Z,53.20
2018-11-21T02:31:35.476Z,53.20
2018-11-21T02:34:03.838Z,53.10
2018-11-21T02:36:32.224Z,53.20
2018-11-21T02:39:00.579Z,53.30
2018-11-21T02:41:29.357Z,53.30
2018-11-21T02:43:57.760Z,53.20
2018-11-21T02:46:26.181Z,53.20
2018-11-21T02:48:54.938Z,53.30
2018-11-21T02:51:23.357Z,53.20
2018-11-21T02:53:52.209Z,53.40
2018-11-21T02:56:20.959Z,53.20
2018-11-21T02:58:49.755Z,53.40
2018-11-21T03:01:18.128Z,53.40
2018-11-21T03:03:46.515Z,53.40
2018-11-21T03:06:14.927Z,53.40
2018-11-21T03:08:43.303Z,53.40
2018-11-21T03:11:12.028Z,53.40
2018-11-21T03:13:40.798Z,53.60
2018-11-21T03:16:09.535Z,53.30
2018-11-21T03:18:38.224Z,53.60
2018-11-21T03:21:06.620Z,53.50
2018-11-21T03:23:34.967Z,53.40
2018-11-21T03:26:03.326Z,53.60
2018-11-21T03:28:31.780Z,53.60
2018-11-21T03:31:00.145Z,53.60
2018-11-21T03:33:28.884Z,53.70
2018-11-21T03:35:57.361Z,53.60
2018-11-21T03:38:25.737Z,53.50
2018-11-21T03:40:54.895Z,53.50
2018-11-21T03:43:23.286Z,53.60
2018-11-21T03:45:51.734Z,53.60
2018-11-21T03:48:20.430Z,53.60
2018-11-21T03:50:49.224Z,53.60
2018-11-21T03:53:17.572Z,53.60
2018-11-21T03:55:46.297Z,53.70
2018-11-21T03:58:15.039Z,53.60
2018-11-21T04:00:43.742Z,53.70
2018-11-21T04:03:12.459Z,53.70
2018-11-21T04:05:40.858Z,53.60
2018-11-21T04:08:09.610Z,53.70
2018-11-21T04:10:38.295Z,53.70
2018-11-21T04:13:06.701Z,53.60
2018-11-21T04:15:35.849Z,53.80
2018-11-21T04:18:04.389Z,53.70
2018-11-21T04:20:32.777Z,53.80
2018-11-21T04:23:01.987Z,53.90
2018-11-21T04:25:30.806Z,53.80
2018-11-21T04:27:59.218Z,53.70
2018-11-21T04:30:27.561Z,53.80
2018-11-21T04:32:55.923Z,53.80
2018-11-21T04:35:24.347Z,53.80
2018-11-21T04:37:52.719Z,53.80
2018-11-21T04:40:21.108Z,53.80
2018-11-21T04:42:49.499Z,53.80
2018-11-21T04:45:17.869Z,53.90
2018-11-21T04:47:46.225Z,53.80
2018-11-21T04:50:14.600Z,53.90
2018-11-21T04:52:43.286Z,53.90
2018-11-21T04:55:11.943Z,54.00
2018-11-21T04:57:40.331Z,53.80
2018-11-21T05:00:10.002Z,53.90
2018-11-21T05:02:38.507Z,53.90
2018-11-21T05:05:08.534Z,53.90
2018-11-21T05:07:36.900Z,54.00
2018-11-21T05:10:06.611Z,54.00
2018-11-21T05:12:35.385Z,54.30
2018-11-21T05:15:03.866Z,54.00
2018-11-21T05:17:32.232Z,54.00
2018-11-21T05:20:00.620Z,54.00
2018-11-21T05:22:29.410Z,53.90
2018-11-21T05:24:57.789Z,54.00
2018-11-21T05:27:26.177Z,54.00
2018-11-21T05:29:54.639Z,53.90
2018-11-21T05:32:23.008Z,54.00
2018-11-21T05:34:51.398Z,54.00
2018-11-21T05:37:20.161Z,54.00
2018-11-21T05:39:48.544Z,54.10
2018-11-21T05:42:17.515Z,54.00
2018-11-21T05:44:45.891Z,54.10
2018-11-21T05:47:14.353Z,54.00
2018-11-21T05:49:43.122Z,54.00
2018-11-21T05:52:11.478Z,54.00
2018-11-21T05:54:40.184Z,54.10
2018-11-21T05:57:08.943Z,54.00
2018-11-21T05:59:37.306Z,54.00
2018-11-21T06:02:05.795Z,54.10
2018-11-21T06:04:34.199Z,54.20
2018-11-21T06:07:02.714Z,54.00
2018-11-21T06:09:31.097Z,54.10
2018-11-21T06:12:04.302Z,54.10
2018-11-21T06:14:27.889Z,54.10
2018-11-21T06:16:56.239Z,54.00
2018-11-21T06:19:25.023Z,54.10
2018-11-21T06:21:53.413Z,54.10
2018-11-21T06:24:21.808Z,54.20
2018-11-21T06:27:00.986Z,54.20
2018-11-21T06:29:29.728Z,54.20
2018-11-21T06:31:58.389Z,54.80
2018-11-21T06:34:32.721Z,54.10
2018-11-21T06:36:55.140Z,53.90
2018-11-21T06:39:23.491Z,54.00
2018-11-21T06:41:51.914Z,53.80
2018-11-21T06:44:20.257Z,53.80
2018-11-21T06:46:48.610Z,53.70
2018-11-21T06:49:17.335Z,52.90
2018-11-21T06:51:45.700Z,52.70
2018-11-21T06:54:14.721Z,53.00
2018-11-21T06:56:43.109Z,52.30
2018-11-21T06:59:12.497Z,52.30
2018-11-21T07:01:40.877Z,52.20
2018-11-21T07:04:09.590Z,52.20
2018-11-21T07:06:38.312Z,52.00
2018-11-21T07:09:09.340Z,52.00
2018-11-21T07:11:37.751Z,51.80
2018-11-21T07:14:07.234Z,51.80
2018-11-21T07:16:35.976Z,51.80
2018-11-21T07:19:04.767Z,51.80
2018-11-21T07:21:33.138Z,51.60
2018-11-21T07:24:01.485Z,51.80
2018-11-21T07:26:29.891Z,51.80
2018-11-21T07:28:58.251Z,52.10
2018-11-21T07:31:26.610Z,52.20
2018-11-21T07:33:55.095Z,52.40
2018-11-21T07:36:23.442Z,52.20
2018-11-21T07:38:51.824Z,52.40
2018-11-21T07:41:20.216Z,52.40
2018-11-21T07:43:48.682Z,53.10
2018-11-21T07:46:17.028Z,52.60
2018-11-21T07:48:45.437Z,52.50
2018-11-21T07:51:13.786Z,52.40
2018-11-21T07:53:42.151Z,52.30
2018-11-21T07:57:02.921Z,52.10
2018-11-21T07:59:31.794Z,52.00
2018-11-21T08:02:09.718Z,51.70
2018-11-21T08:05:03.022Z,51.60
2018-11-21T08:07:50.571Z,51.50
2018-11-21T08:10:37.046Z,51.40
2018-11-21T08:13:21.166Z,51.50
2018-11-21T08:16:20.574Z,51.70
2018-11-21T08:19:08.137Z,51.90
2018-11-21T08:21:54.260Z,52.00
2018-11-21T08:24:37.196Z,52.10
2018-11-21T08:27:37.429Z,52.20
2018-11-21T08:30:06.150Z,52.10
2018-11-21T08:32:34.509Z,52.20
2018-11-21T08:35:02.859Z,52.30
2018-11-21T08:37:31.255Z,52.30
2018-11-21T08:39:59.623Z,51.90
2018-11-21T08:42:27.978Z,51.90
2018-11-21T08:44:56.685Z,51.70
2018-11-21T08:47:25.038Z,51.60
2018-11-21T08:49:53.398Z,51.50
2018-11-21T08:52:22.540Z,51.50
2018-11-21T08:54:50.972Z,51.30
2018-11-21T08:57:19.364Z,51.40
2018-11-21T08:59:48.090Z,51.20
2018-11-21T09:02:16.439Z,51.20
2018-11-21T09:04:44.800Z,51.00
2018-11-21T09:07:13.563Z,50.70
2018-11-21T09:09:41.942Z,50.70
2018-11-21T09:12:11.136Z,51.40
2018-11-21T09:14:39.039Z,51.00
2018-11-21T09:17:07.381Z,51.10
2018-11-21T09:19:35.751Z,51.10
2018-11-21T09:22:04.601Z,51.10
2018-11-21T09:24:32.952Z,51.10
2018-11-21T09:27:01.297Z,51.20
2018-11-21T09:29:29.674Z,51.30
2018-11-21T09:31:58.360Z,51.10
2018-11-21T09:34:26.741Z,51.10
2018-11-21T09:36:55.121Z,51.00
2018-11-21T09:39:23.497Z,51.10
2018-11-21T09:41:52.206Z,50.90
2018-11-21T09:44:20.592Z,50.70
2018-11-21T09:46:49.337Z,50.80
2018-11-21T09:49:17.703Z,50.70
2018-11-21T09:51:46.502Z,50.70
2018-11-21T09:54:14.930Z,50.80
2018-11-21T09:56:43.312Z,50.70
2018-11-21T09:59:13.368Z,51.30
2018-11-21T10:02:18.811Z,50.80
2018-11-21T10:04:47.192Z,50.70
2018-11-21T10:07:15.551Z,50.60
2018-11-21T10:09:45.747Z,50.50
2018-11-21T10:12:14.147Z,50.40
2018-11-21T10:14:42.611Z,50.40
2018-11-21T10:17:10.981Z,50.60
2018-11-21T10:19:39.455Z,50.50
2018-11-21T10:22:07.822Z,50.60
2018-11-21T10:24:36.203Z,50.50
2018-11-21T10:27:04.967Z,50.50
2018-11-21T10:29:33.346Z,50.70
2018-11-21T10:32:02.048Z,50.50
2018-11-21T10:34:30.432Z,50.70
2018-11-21T10:36:58.806Z,50.70
2018-11-21T10:39:27.154Z,50.60
2018-11-21T10:41:55.884Z,50.80
2018-11-21T10:44:24.255Z,50.70
2018-11-21T10:46:52.635Z,50.70
2018-11-21T10:49:21.037Z,50.70
2018-11-21T10:51:49.383Z,50.60
2018-11-21T10:54:18.112Z,50.40
2018-11-21T10:56:47.107Z,50.20
2018-11-21T10:59:15.860Z,50.20
2018-11-21T11:02:02.297Z,50.30
2018-11-21T11:04:49.823Z,50.30
2018-11-21T11:07:46.813Z,50.30
2018-11-21T11:10:52.649Z,50.30
2018-11-21T11:13:39.530Z,50.40
2018-11-21T11:16:36.029Z,50.30
2018-11-21T11:19:32.154Z,50.30
2018-11-21T11:22:18.287Z,50.30
2018-11-21T11:25:14.824Z,50.50
2018-11-21T11:28:01.011Z,50.50
2018-11-21T11:30:54.439Z,50.60
2018-11-21T11:33:37.961Z,50.70
2018-11-21T11:36:28.435Z,50.70
2018-11-21T11:39:14.802Z,50.80
2018-11-21T11:42:00.795Z,50.70
2018-11-21T11:44:47.273Z,50.60
2018-11-21T11:47:33.708Z,50.50
2018-11-21T11:50:16.178Z,50.50
2018-11-21T11:53:03.738Z,50.50
2018-11-21T11:55:53.992Z,50.60
2018-11-21T11:58:28.637Z,50.50
2018-11-21T12:01:28.384Z,50.50
2018-11-21T12:04:21.519Z,50.50
2018-11-21T12:07:24.464Z,50.40
2018-11-21T12:10:10.793Z,50.50
2018-11-21T12:13:07.392Z,50.50
2018-11-21T12:15:47.923Z,50.70
2018-11-21T12:18:53.702Z,50.70
2018-11-21T12:21:47.214Z,50.70
2018-11-21T12:24:42.737Z,50.50
2018-11-21T12:27:39.650Z,50.50
2018-11-21T12:30:27.578Z,50.60
2018-11-21T12:33:30.683Z,50.70
2018-11-21T12:36:21.249Z,50.90
2018-11-21T12:39:07.412Z,50.80
2018-11-21T12:42:09.917Z,50.90
2018-11-21T12:45:04.396Z,50.70
2018-11-21T12:48:09.987Z,50.80
2018-11-21T12:51:06.807Z,50.80
2018-11-21T12:53:50.226Z,50.80
2018-11-21T12:56:40.503Z,50.70
2018-11-21T12:59:27.607Z,50.90
2018-11-21T13:02:05.536Z,50.70
2018-11-21T13:05:04.973Z,50.70
2018-11-21T13:07:55.256Z,50.70
2018-11-21T13:10:48.781Z,50.80
2018-11-21T13:13:36.395Z,50.30
2018-11-21T13:16:32.852Z,50.60
2018-11-21T13:19:26.889Z,50.60
2018-11-21T13:22:13.281Z,50.80
2018-11-21T13:25:06.646Z,50.70
2018-11-21T13:27:44.735Z,51.20
2018-11-21T13:30:31.152Z,50.90
2018-11-21T13:33:37.022Z,50.80
2018-11-21T13:36:27.932Z,50.90
2018-11-21T13:39:21.559Z,50.90
2018-11-21T13:42:07.964Z,50.90
2018-11-21T13:44:55.486Z,50.50
2018-11-21T13:47:52.385Z,50.30
2018-11-21T13:50:40.279Z,50.50
2018-11-21T13:53:32.260Z,50.40
2018-11-21T13:56:00.997Z,50.50
2018-11-21T13:58:29.755Z,50.70
2018-11-21T14:00:58.154Z,50.70
2018-11-21T14:03:26.616Z,50.60
2018-11-21T14:05:55.318Z,50.70
2018-11-21T14:08:23.774Z,50.80
2018-11-21T14:10:52.132Z,50.60
2018-11-21T14:13:21.251Z,50.90
2018-11-21T14:15:49.649Z,51.60
2018-11-21T14:18:18.015Z,51.00
2018-11-21T14:20:47.142Z,51.10
2018-11-21T14:23:16.060Z,51.10
2018-11-21T14:25:44.414Z,51.10
2018-11-21T14:28:12.781Z,51.20
2018-11-21T14:30:41.194Z,51.00
2018-11-21T14:33:09.574Z,50.80
2018-11-21T14:35:37.964Z,50.70
2018-11-21T14:38:06.772Z,50.70
2018-11-21T14:40:35.522Z,50.80
2018-11-21T14:43:04.017Z,50.80
2018-11-21T14:45:32.404Z,50.70
2018-11-21T14:48:00.803Z,50.70
2018-11-21T14:50:31.523Z,51.40
2018-11-21T14:52:59.952Z,50.90
2018-11-21T14:55:28.303Z,50.90
2018-11-21T14:57:56.751Z,51.00
2018-11-21T15:00:25.853Z,51.10
2018-11-21T15:02:54.231Z,51.10
2018-11-21T15:05:22.629Z,51.20
2018-11-21T15:07:51.010Z,51.30
2018-11-21T15:10:19.366Z,51.10
2018-11-21T15:12:47.820Z,51.10
2018-11-21T15:15:18.317Z,50.90
2018-11-21T15:17:47.070Z,50.70
2018-11-21T15:20:17.084Z,50.80
2018-11-21T15:22:45.829Z,50.60
2018-11-21T15:25:15.591Z,50.60
2018-11-21T15:27:43.954Z,50.70
2018-11-21T15:30:18.420Z,50.80
2018-11-21T15:32:47.175Z,50.80
2018-11-21T15:35:15.545Z,50.80
2018-11-21T15:37:44.605Z,50.80
2018-11-21T15:40:15.046Z,50.90
2018-11-21T15:42:43.676Z,51.50
2018-11-21T15:45:14.254Z,51.00
2018-11-21T15:47:42.924Z,51.10
2018-11-21T15:50:13.523Z,51.20
2018-11-21T15:52:42.139Z,51.50
2018-11-21T15:55:11.977Z,51.30
2018-11-21T15:57:40.327Z,51.50
2018-11-21T16:00:13.255Z,51.80
2018-11-21T16:02:42.294Z,51.00
2018-11-21T16:05:10.763Z,50.70
2018-11-21T16:07:39.391Z,50.70
2018-11-21T16:10:18.259Z,50.60
2018-11-21T16:12:39.803Z,50.30
2018-11-21T16:15:11.202Z,50.80
2018-11-21T16:17:39.557Z,50.40
2018-11-21T16:20:09.565Z,50.50
2018-11-21T16:22:38.361Z,50.60
2018-11-21T16:25:08.592Z,50.70
2018-11-21T16:27:37.670Z,50.70
2018-11-21T16:30:09.053Z,50.40
2018-11-21T16:32:37.537Z,50.50
2018-11-21T16:35:08.409Z,50.50
2018-11-21T16:37:34.572Z,50.60
2018-11-21T16:40:03.441Z,50.60
2018-11-21T16:42:31.821Z,50.10
2018-11-21T16:45:00.496Z,50.30
2018-11-21T16:47:28.864Z,50.20
2018-11-21T16:49:57.234Z,50.10
2018-11-21T16:52:25.619Z,50.00
2018-11-21T16:54:53.996Z,49.80
2018-11-21T16:57:22.690Z,49.70
2018-11-21T16:59:51.094Z,49.50
2018-11-21T17:02:19.568Z,49.40
2018-11-21T17:04:48.007Z,49.30
2018-11-21T17:07:16.410Z,49.10
2018-11-21T17:09:45.325Z,49.10
2018-11-21T17:12:14.728Z,49.10
2018-11-21T17:14:43.867Z,49.00
2018-11-21T17:17:12.233Z,48.80
2018-11-21T17:19:40.615Z,48.70
2018-11-21T17:22:09.090Z,48.90
2018-11-21T17:24:37.509Z,48.70
2018-11-21T17:27:05.988Z,48.70
2018-11-21T17:29:34.392Z,48.70
2018-11-21T17:32:02.780Z,48.80
2018-11-21T17:34:31.153Z,48.80
2018-11-21T17:36:59.585Z,48.80
2018-11-21T17:39:27.959Z,48.80
2018-11-21T17:41:56.338Z,48.90
2018-11-21T17:44:24.819Z,49.10
2018-11-21T17:46:53.200Z,49.10
2018-11-21T17:49:21.559Z,48.80
2018-11-21T17:51:49.959Z,48.80
2018-11-21T17:54:18.694Z,48.70
2018-11-21T17:56:47.822Z,48.70
2018-11-21T17:59:16.249Z,48.40
2018-11-21T18:01:44.606Z,48.20
2018-11-21T18:04:12.987Z,48.20
2018-11-21T18:06:41.362Z,48.70
2018-11-21T18:09:11.462Z,48.30
2018-11-21T18:11:40.523Z,48.40
2018-11-21T18:14:09.187Z,48.40
2018-11-21T18:16:37.562Z,48.60
2018-11-21T18:19:06.213Z,48.70
2018-11-21T18:21:34.653Z,48.90
2018-11-21T18:24:03.067Z,49.00
2018-11-21T18:26:31.830Z,49.00
2018-11-21T18:29:00.223Z,48.90
2018-11-21T18:31:28.647Z,49.10
2018-11-21T18:33:57.414Z,49.20
2018-11-21T18:36:25.802Z,49.40
2018-11-21T18:38:54.175Z,50.00
2018-11-21T18:41:22.547Z,49.40
2018-11-21T18:43:50.948Z,49.10
2018-11-21T18:46:19.909Z,49.30
2018-11-21T18:48:48.668Z,48.90
2018-11-21T18:51:17.250Z,49.00
2018-11-21T18:53:45.619Z,49.00
2018-11-21T18:56:45.390Z,49.00
2018-11-21T18:59:16.175Z,49.10
2018-11-21T19:01:46.808Z,49.00
2018-11-21T19:04:13.306Z,49.20
2018-11-21T19:06:41.688Z,49.30
2018-11-21T19:09:12.290Z,49.40
2018-11-21T19:11:40.705Z,49.50
2018-11-21T19:14:09.416Z,49.60
2018-11-21T19:16:37.774Z,49.70
2018-11-21T19:19:06.360Z,49.70
2018-11-21T19:21:34.731Z,49.70
2018-11-21T19:24:03.625Z,49.80
2018-11-21T19:26:32.387Z,49.90
2018-11-21T19:29:00.758Z,49.90
2018-11-21T19:31:29.782Z,49.80
2018-11-21T19:33:57.705Z,49.90
2018-11-21T19:36:26.077Z,49.90
2018-11-21T19:38:54.460Z,50.00
2018-11-21T19:41:23.615Z,49.90
2018-11-21T19:43:52.104Z,50.10
2018-11-21T19:46:20.538Z,50.10
2018-11-21T19:48:49.676Z,50.00
2018-11-21T19:51:18.055Z,50.20
2018-11-21T19:53:46.450Z,50.10
2018-11-21T19:56:14.864Z,50.10
2018-11-21T19:58:43.247Z,50.20
2018-11-21T20:01:11.637Z,50.30
2018-11-21T20:03:40.065Z,50.20
2018-11-21T20:06:08.441Z,50.10
2018-11-21T20:08:36.825Z,50.20
2018-11-21T20:11:05.957Z,50.10
2018-11-21T20:13:34.648Z,50.20
2018-11-21T20:16:03.449Z,50.30
2018-11-21T20:18:31.853Z,50.30
2018-11-21T20:21:00.224Z,50.40
2018-11-21T20:23:28.928Z,50.30
2018-11-21T20:25:57.350Z,50.30
2018-11-21T20:28:26.187Z,50.50
2018-11-21T20:30:54.499Z,50.50
2018-11-21T20:33:23.273Z,50.50
2018-11-21T20:35:51.631Z,50.40
2018-11-21T20:38:20.368Z,50.50
2018-11-21T20:40:48.422Z,50.50
2018-11-21T20:43:16.784Z,50.50
2018-11-21T20:45:45.213Z,50.50
2018-11-21T20:48:13.631Z,50.50
2018-11-21T20:50:41.991Z,50.50
2018-11-21T20:53:10.426Z,50.60
2018-11-21T20:55:40.051Z,50.50
2018-11-21T20:58:08.412Z,50.60
2018-11-21T21:00:36.777Z,51.40
2018-11-21T21:05:34.120Z,50.80
2018-11-21T21:08:02.912Z,50.80
2018-11-21T21:10:32.859Z,50.70
2018-11-21T21:13:01.568Z,50.70
2018-11-21T21:15:30.202Z,50.60
2018-11-21T21:17:58.586Z,50.70
2018-11-21T21:20:27.815Z,50.70
2018-11-21T21:22:57.633Z,50.60
2018-11-21T21:25:27.576Z,50.50
2018-11-21T21:27:56.037Z,50.50
2018-11-21T21:30:26.150Z,50.60
2018-11-21T21:32:54.908Z,50.60
2018-11-21T21:35:24.782Z,50.70
2018-11-21T21:37:53.266Z,50.80
2018-11-21T21:40:22.761Z,50.90
2018-11-21T21:42:51.313Z,51.00
2018-11-21T21:45:21.302Z,51.10
2018-11-21T21:47:50.064Z,51.10
2018-11-21T21:50:20.057Z,51.10
2018-11-21T21:52:48.745Z,51.10
2018-11-21T21:55:18.060Z,51.00
2018-11-21T21:57:46.426Z,51.00
2018-11-21T22:00:19.611Z,51.50
2018-11-21T22:02:48.340Z,51.00
2018-11-21T22:05:16.801Z,51.00
2018-11-21T22:07:45.445Z,51.00
2018-11-21T22:10:15.016Z,51.10
2018-11-21T22:12:43.502Z,51.10
2018-11-21T22:15:28.965Z,51.30
2018-11-21T22:17:59.379Z,51.40
2018-11-21T22:20:28.179Z,51.50
2018-11-21T22:22:56.976Z,51.60
2018-11-21T22:25:25.529Z,51.60
2018-11-21T22:27:54.566Z,51.60
2018-11-21T22:30:23.416Z,51.60
2018-11-21T22:32:52.416Z,51.60
2018-11-21T22:35:24.993Z,51.80
2018-11-21T22:37:51.435Z,51.70
2018-11-21T22:40:19.516Z,51.90
2018-11-21T22:42:48.258Z,51.90
2018-11-21T22:45:18.234Z,52.20
2018-11-21T22:47:47.057Z,51.90
2018-11-21T22:50:17.121Z,52.10
2018-11-21T22:52:45.923Z,52.00
2018-11-21T22:55:14.691Z,52.10
2018-11-21T22:57:43.843Z,52.10
2018-11-21T23:00:24.107Z,52.00
2018-11-21T23:02:52.495Z,52.10
2018-11-21T23:05:20.865Z,52.20
2018-11-21T23:07:49.254Z,52.30
2018-11-21T23:10:18.299Z,52.20
2018-11-21T23:12:46.646Z,52.20
2018-11-21T23:15:15.035Z,52.30
2018-11-21T23:17:43.387Z,52.30
2018-11-21T23:20:13.133Z,52.30
2018-11-21T23:22:42.061Z,52.50
2018-11-21T23:25:11.751Z,52.30
2018-11-21T23:27:40.647Z,52.40
2018-11-21T23:30:14.582Z,52.20
2018-11-21T23:32:42.985Z,53.00
2018-11-21T23:35:13.035Z,52.30
2018-11-21T23:37:41.462Z,52.60
2018-11-21T23:40:11.619Z,52.40
2018-11-21T23:42:41.148Z,52.60
2018-11-21T23:45:11.391Z,52.60
2018-11-21T23:47:40.158Z,52.70
2018-11-21T23:50:10.181Z,52.90
2018-11-21T23:52:38.798Z,52.60
2018-11-21T23:55:09.601Z,52.60
2018-11-21T23:57:37.981Z,52.70
